Terminal Aerodrome Forecast
Issued by NWS

Current Version | Previous Version | Graphics & Text | Print | Product List | Glossary On
Versions: 1 2 3 4 5 6 7 8 9 10 11 12 13 14 15 16 17 18
000
FTUS41 KPBZ 201502 AAB
TAFHLG
TAF AMD
KHLG 201502Z 2015/2112 VRB04KT P6SM BKN007 BKN015
     FM201700 04005KT P6SM BKN025
     FM201800 08005KT P6SM BKN050=

USA.gov is the U.S. government's official web portal to all federal, state and local government web resources and services.